KJYM

Hillsdale Municipal Airport

Hillsdale, Michigan, USA
METAR KJYM 220035Z AUTO 06003KT 10SM CLR 01/M01 A3055 RMK AO2
Observed Flight Rules
Feb-22 @ 00:35 UTC (4 hours ago) Visual Flight Rules
Wind Visibility Clouds
60° at 3 knots 10 miles
  • Clear skies
Temperatures Readings
Current 1°C / 34°F
Dewpoint -1°C / 30°F
Humidity 87%
Altimeter 30.55" Hg
Pressure 1035 hPa
Elevation 360
METAR KJYM 220035Z AUTO 06003KT 10SM CLR 01/M01 A3055 RMK AO2
Observed Flight Rules
Feb-22 @ 00:35 UTC
(4 hours ago)
VFR
Wind Visibility
60° at 3 knots 10 miles
Clouds
  • Clear skies
Temperature Dewpoint
1°C / 34°F -1°C / 30°F
Humidity Altimeter Pressure
87% 30.55" Hg 1035 hPa